Storm Events Database

Event Details

Event Hail
Magnitude 0.75 in.
State MISSISSIPPI
County/Area ATTALA
WFO JAN
Report Source Emergency Manager
NCDC Data Source CSV
Begin Date 2007-04-14 07:06:00.0 CST-6
Begin Location 0E MC COOL
Begin Lat/Lon 33.2/-89.35
End Date 2007-04-14 07:06:00.0 CST-6
Deaths Direct/Indirect 0/0 (fatality details below, when available...)
Injuries Direct/Indirect 0/0
Property Damage 0.00K
Crop Damage 0.00K
Episode Narrative A potent upper level disturbance lifted northeast across the Southern Plains and into the Ohio Valley. As this system evolved and tracked northeast, severe weather broke out across a large portion of the region between April 13th and 14th. Many reports of large hail, damaging winds and a few isolated tornadoes were received.
Event Narrative


     ‚Äč



All events for this episode:

Location County/Zone St. Date Time T.Z. Type Mag Dth Inj PrD CrD
Totals: 0 0 2.245M 0.00K
GRENADA GRENADA CO. MS 04/14/2007 03:16 CST-6 Thunderstorm Wind 55 kts. EG 0 0 2.00K 0.00K
TCHULA HOLMES CO. MS 04/14/2007 03:30 CST-6 Hail 0.75 in. 0 0 0.00K 0.00K
PINE RIDGE ADAMS CO. MS 04/14/2007 05:40 CST-6 Thunderstorm Wind 50 kts. EG 0 0 13.00K 0.00K
VICKSBURG WARREN CO. MS 04/14/2007 05:47 CST-6 Thunderstorm Wind 50 kts. EG 0 0 0.00K 0.00K
CHURCH HILL JEFFERSON CO. MS 04/14/2007 06:00 CST-6 Thunderstorm Wind 53 kts. EG 0 0 30.00K 0.00K
PATTISON CLAIBORNE CO. MS 04/14/2007 06:10 CST-6 Thunderstorm Wind 50 kts. EG 0 0 0.00K 0.00K
LEARNED HINDS CO. MS 04/14/2007 06:30 CST-6 Thunderstorm Wind 60 kts. EG 0 0 20.00K 0.00K
SALLIS ATTALA CO. MS 04/14/2007 06:35 CST-6 Hail 1.75 in. 0 0 50.00K 0.00K
THOMASTOWN LEAKE CO. MS 04/14/2007 06:53 CST-6 Thunderstorm Wind 50 kts. EG 0 0 0.00K 0.00K
HINDS (ZONE) HINDS (ZONE) MS 04/14/2007 06:57 CST-6 Strong Wind 48 kts. MG 0 0 1.00K 0.00K
ETHEL ATTALA CO. MS 04/14/2007 07:00 CST-6 Thunderstorm Wind 60 kts. EG 0 0 10.00K 0.00K
MADISON MADISON CO. MS 04/14/2007 07:02 CST-6 Thunderstorm Wind 50 kts. EG 0 0 0.00K 0.00K
MC COOL ATTALA CO. MS 04/14/2007 07:06 CST-6 Hail 0.75 in. 0 0 0.00K 0.00K
CARTHAGE LEAKE CO. MS 04/14/2007 08:00 CST-6 Hail 0.75 in. 0 0 0.00K 0.00K
BYRAM HINDS CO. MS 04/14/2007 08:35 CST-6 Hail 0.88 in. 0 0 0.00K 0.00K
FLORENCE RANKIN CO. MS 04/14/2007 08:38 CST-6 Hail 0.88 in. 0 0 0.00K 0.00K
FLORENCE RANKIN CO. MS 04/14/2007 08:41 CST-6 Thunderstorm Wind 50 kts. EG 0 0 0.00K 0.00K
NEB MARION CO. MS 04/14/2007 08:50 CST-6 Thunderstorm Wind 54 kts. EG 0 0 10.00K 0.00K
MILDRED MARION CO. MS 04/14/2007 09:05 CST-6 Thunderstorm Wind 50 kts. EG 0 0 5.00K 0.00K
LENA LEAKE CO. MS 04/14/2007 09:10 CST-6 Hail 0.88 in. 0 0 0.00K 0.00K
PINEBUR MARION CO. MS 04/14/2007 09:10 CST-6 Tornado EF0 0 0 1.00K 0.00K
BAXTERVILLE LAMAR CO. MS 04/14/2007 09:13 CST-6 Thunderstorm Wind 50 kts. EG 0 0 4.00K 0.00K
COLLINS JAYCEE ARPT COVINGTON CO. MS 04/14/2007 09:15 CST-6 Thunderstorm Wind 50 kts. EG 0 0 15.00K 0.00K
HEBRON JONES CO. MS 04/14/2007 09:30 CST-6 Thunderstorm Wind 50 kts. EG 0 0 4.00K 0.00K
PURVIS LAMAR CO. MS 04/14/2007 09:30 CST-6 Thunderstorm Wind 50 kts. EG 0 0 12.00K 0.00K
OAK BOWERY JONES CO. MS 04/14/2007 09:35 CST-6 Tornado EF0 0 0 0.00K 0.00K
HATTIESBURG LAMAR CO. MS 04/14/2007 09:36 CST-6 Thunderstorm Wind 50 kts. EG 0 0 160.00K 0.00K
LAUREL JONES CO. MS 04/14/2007 09:43 CST-6 Hail 0.88 in. 0 0 0.00K 0.00K
HATTIESBURG FORREST CO. MS 04/14/2007 09:45 CST-6 Thunderstorm Wind 50 kts. EG 0 0 15.00K 0.00K
HATTIESBURG FORREST CO. MS 04/14/2007 09:45 CST-6 Thunderstorm Wind 50 kts. EG 0 0 14.00K 0.00K
PETAL FORREST CO. MS 04/14/2007 09:50 CST-6 Thunderstorm Wind 61 kts. EG 0 0 60.00K 0.00K
STAFFORD SPGS JASPER CO. MS 04/14/2007 10:02 CST-6 Thunderstorm Wind 50 kts. EG 0 0 7.00K 0.00K
GOODWATER CLARKE CO. MS 04/14/2007 10:10 CST-6 Thunderstorm Wind 50 kts. EG 0 0 10.00K 0.00K
OVETT JONES CO. MS 04/14/2007 10:10 CST-6 Hail 1.00 in. 0 0 0.00K 0.00K
HATTIESBURG FORREST CO. MS 04/14/2007 10:15 CST-6 Flash Flood 0 0 400.00K 0.00K
COLUMBUS LOWNDES CO. MS 04/14/2007 10:17 CST-6 Thunderstorm Wind 50 kts. EG 0 0 2.00K 0.00K
HATTIESBURG LAMAR CO. MS 04/14/2007 10:20 CST-6 Flash Flood 0 0 1.200M 0.00K
PETAL FORREST CO. MS 04/14/2007 10:41 CST-6 Tornado EF1 0 0 200.00K 0.00K
NOXAPATER WINSTON CO. MS 04/14/2007 10:45 CST-6 Hail 0.75 in. 0 0 0.00K 0.00K
Totals: 0 0 2.245M 0.00K